MMML/MXL METAR and TAF weather

Enter ICAO airport designator
Station Type Date Time Source
MMML METAR 2022/01/29 08:54 UTC NOAA

MMML 290854Z 28008KT 10SM SKC 10/M10 A3019 RMK SLP224 57010 983 ISOL CI


Station Type Date Time Source
MMML Decoded METAR 2022/01/29 08:54 UTC NOAA

Mexicali International Airport , Mexico (MMML) 32-38N 117-00W
Jan 29, 2022 - 03:54 AM EST / 2022.01.29 0854 UTC
Wind: from the W (280 degrees) at 9 MPH (8 KT):0
Visibility: 10 mile(s):0
Sky conditions: clear
Temperature: 50 F (10 C)
Dew Point: 14 F (-10 C)
Relative Humidity: 23%
Pressure (altimeter): 30.19 in. Hg (1022 hPa)
Pressure tendency: 0.03 inches (1.0 hPa) lower than three hours ago
ob: MMML 290854Z 28008KT 10SM SKC 10/M10 A3019 RMK SLP224 57010 983 ISOL CI
cycle: 9

Station Type Date Time Source
MMML TAF 2022/01/29 06:16 UTC NOAA

TAF MMML 290508Z 2906/3006 28005KT P6SM SCT200
FM291800 33010KT P6SM SKC
FM300300 33005KT P6SM SKC

Example: see airport list